sensor_id;sensor_type;location;lat;lon;timestamp;P1;durP1;ratioP1;P2;durP2;ratioP2
44428;SDS011;30134;47.866;-4.222;2023-06-22T00:00:58;27.38;;;20.55;;
44428;SDS011;30134;47.866;-4.222;2023-06-22T00:03:25;26.77;;;18.98;;
44428;SDS011;30134;47.866;-4.222;2023-06-22T00:05:52;24.45;;;18.35;;
44428;SDS011;30134;47.866;-4.222;2023-06-22T00:08:18;25.35;;;18.27;;
44428;SDS011;30134;47.866;-4.222;2023-06-22T00:10:45;23.25;;;16.58;;
44428;SDS011;30134;47.866;-4.222;2023-06-22T00:13:12;21.80;;;16.73;;
44428;SDS011;30134;47.866;-4.222;2023-06-22T00:15:40;18.90;;;15.10;;
44428;SDS011;30134;47.866;-4.222;2023-06-22T00:18:07;20.25;;;13.63;;
44428;SDS011;30134;47.866;-4.222;2023-06-22T00:20:34;18.05;;;13.70;;
44428;SDS011;30134;47.866;-4.222;2023-06-22T00:23:02;18.05;;;13.38;;
44428;SDS011;30134;47.866;-4.222;2023-06-22T00:25:39;17.98;;;12.68;;
44428;SDS011;30134;47.866;-4.222;2023-06-22T00:28:05;17.83;;;13.30;;
44428;SDS011;30134;47.866;-4.222;2023-06-22T00:30:33;17.60;;;12.77;;
44428;SDS011;30134;47.866;-4.222;2023-06-22T00:33:00;15.35;;;11.73;;
44428;SDS011;30134;47.866;-4.222;2023-06-22T00:35:26;13.68;;;10.25;;
44428;SDS011;30134;47.866;-4.222;2023-06-22T00:37:54;14.32;;;10.55;;
44428;SDS011;30134;47.866;-4.222;2023-06-22T00:40:29;14.18;;;11.20;;
44428;SDS011;30134;47.866;-4.222;2023-06-22T00:42:57;15.20;;;10.32;;
44428;SDS011;30134;47.866;-4.222;2023-06-22T00:45:24;13.25;;;9.75;;
44428;SDS011;30134;47.866;-4.222;2023-06-22T00:47:52;13.68;;;10.45;;
44428;SDS011;30134;47.866;-4.222;2023-06-22T00:50:24;11.60;;;8.85;;
44428;SDS011;30134;47.866;-4.222;2023-06-22T00:52:59;11.20;;;8.65;;
44428;SDS011;30134;47.866;-4.222;2023-06-22T00:55:37;12.30;;;9.45;;
44428;SDS011;30134;47.866;-4.222;2023-06-22T00:58:08;10.93;;;7.60;;
44428;SDS011;30134;47.866;-4.222;2023-06-22T01:00:35;9.68;;;7.00;;
44428;SDS011;30134;47.866;-4.222;2023-06-22T01:03:03;10.75;;;8.05;;
44428;SDS011;30134;47.866;-4.222;2023-06-22T01:05:33;10.15;;;7.75;;
44428;SDS011;30134;47.866;-4.222;2023-06-22T01:11:08;10.05;;;6.97;;
44428;SDS011;30134;47.866;-4.222;2023-06-22T01:16:29;9.15;;;6.65;;
44428;SDS011;30134;47.866;-4.222;2023-06-22T01:19:00;8.60;;;6.53;;
44428;SDS011;30134;47.866;-4.222;2023-06-22T01:21:46;7.50;;;6.18;;
44428;SDS011;30134;47.866;-4.222;2023-06-22T01:24:33;6.95;;;5.78;;
44428;SDS011;30134;47.866;-4.222;2023-06-22T01:30:17;7.18;;;5.70;;
44428;SDS011;30134;47.866;-4.222;2023-06-22T01:32:45;8.98;;;6.15;;
44428;SDS011;30134;47.866;-4.222;2023-06-22T01:35:13;7.75;;;5.55;;
44428;SDS011;30134;47.866;-4.222;2023-06-22T01:37:40;7.28;;;4.95;;
44428;SDS011;30134;47.866;-4.222;2023-06-22T01:40:06;6.88;;;5.10;;
44428;SDS011;30134;47.866;-4.222;2023-06-22T01:42:34;6.82;;;4.88;;
44428;SDS011;30134;47.866;-4.222;2023-06-22T01:45:02;5.85;;;4.38;;
44428;SDS011;30134;47.866;-4.222;2023-06-22T01:47:30;5.15;;;4.55;;
44428;SDS011;30134;47.866;-4.222;2023-06-22T01:49:57;6.05;;;4.35;;
44428;SDS011;30134;47.866;-4.222;2023-06-22T01:52:23;7.10;;;4.30;;
44428;SDS011;30134;47.866;-4.222;2023-06-22T01:54:49;5.30;;;4.20;;
44428;SDS011;30134;47.866;-4.222;2023-06-22T01:57:21;5.80;;;4.20;;
44428;SDS011;30134;47.866;-4.222;2023-06-22T01:59:49;4.72;;;3.83;;
44428;SDS011;30134;47.866;-4.222;2023-06-22T02:02:31;5.13;;;3.92;;
44428;SDS011;30134;47.866;-4.222;2023-06-22T02:05:17;4.43;;;3.65;;
44428;SDS011;30134;47.866;-4.222;2023-06-22T02:07:45;5.20;;;3.75;;
44428;SDS011;30134;47.866;-4.222;2023-06-22T02:10:19;6.75;;;3.75;;
44428;SDS011;30134;47.866;-4.222;2023-06-22T02:12:46;6.63;;;4.05;;
44428;SDS011;30134;47.866;-4.222;2023-06-22T02:15:13;4.10;;;3.22;;
44428;SDS011;30134;47.866;-4.222;2023-06-22T02:17:40;4.00;;;3.50;;
44428;SDS011;30134;47.866;-4.222;2023-06-22T02:20:13;4.45;;;3.42;;
44428;SDS011;30134;47.866;-4.222;2023-06-22T02:22:40;3.90;;;3.22;;
44428;SDS011;30134;47.866;-4.222;2023-06-22T02:25:06;4.28;;;3.30;;
44428;SDS011;30134;47.866;-4.222;2023-06-22T02:27:33;4.00;;;3.05;;
44428;SDS011;30134;47.866;-4.222;2023-06-22T02:30:01;5.15;;;3.38;;
44428;SDS011;30134;47.866;-4.222;2023-06-22T02:32:27;5.07;;;3.25;;
44428;SDS011;30134;47.866;-4.222;2023-06-22T02:34:53;5.65;;;3.10;;
44428;SDS011;30134;47.866;-4.222;2023-06-22T02:37:19;4.72;;;2.92;;
44428;SDS011;30134;47.866;-4.222;2023-06-22T02:39:45;4.07;;;2.78;;
44428;SDS011;30134;47.866;-4.222;2023-06-22T02:42:11;4.47;;;3.15;;
44428;SDS011;30134;47.866;-4.222;2023-06-22T02:44:37;4.22;;;3.33;;
44428;SDS011;30134;47.866;-4.222;2023-06-22T02:47:03;3.78;;;2.67;;
44428;SDS011;30134;47.866;-4.222;2023-06-22T02:49:30;4.25;;;2.65;;
44428;SDS011;30134;47.866;-4.222;2023-06-22T02:51:57;4.38;;;2.92;;
44428;SDS011;30134;47.866;-4.222;2023-06-22T02:54:23;4.20;;;3.13;;
44428;SDS011;30134;47.866;-4.222;2023-06-22T02:56:49;3.95;;;2.88;;
44428;SDS011;30134;47.866;-4.222;2023-06-22T02:59:15;4.13;;;2.72;;
44428;SDS011;30134;47.866;-4.222;2023-06-22T03:01:41;4.85;;;2.78;;
44428;SDS011;30134;47.866;-4.222;2023-06-22T03:04:08;5.38;;;2.85;;
44428;SDS011;30134;47.866;-4.222;2023-06-22T03:06:35;4.70;;;2.35;;
44428;SDS011;30134;47.866;-4.222;2023-06-22T03:09:04;2.92;;;2.40;;
44428;SDS011;30134;47.866;-4.222;2023-06-22T03:11:31;3.30;;;2.47;;
44428;SDS011;30134;47.866;-4.222;2023-06-22T03:13:58;4.32;;;2.35;;
44428;SDS011;30134;47.866;-4.222;2023-06-22T03:16:27;3.08;;;2.50;;
44428;SDS011;30134;47.866;-4.222;2023-06-22T03:18:54;3.78;;;2.67;;
44428;SDS011;30134;47.866;-4.222;2023-06-22T03:24:40;3.10;;;2.13;;
44428;SDS011;30134;47.866;-4.222;2023-06-22T03:27:06;2.83;;;2.28;;
44428;SDS011;30134;47.866;-4.222;2023-06-22T03:29:32;2.92;;;2.50;;
44428;SDS011;30134;47.866;-4.222;2023-06-22T03:31:59;3.50;;;2.35;;
44428;SDS011;30134;47.866;-4.222;2023-06-22T03:34:25;3.80;;;2.38;;
44428;SDS011;30134;47.866;-4.222;2023-06-22T03:36:51;2.95;;;2.47;;
44428;SDS011;30134;47.866;-4.222;2023-06-22T03:39:17;2.47;;;2.10;;
44428;SDS011;30134;47.866;-4.222;2023-06-22T03:41:43;2.85;;;2.00;;
44428;SDS011;30134;47.866;-4.222;2023-06-22T03:44:09;3.13;;;2.20;;
44428;SDS011;30134;47.866;-4.222;2023-06-22T03:46:37;3.92;;;2.33;;
44428;SDS011;30134;47.866;-4.222;2023-06-22T03:49:03;2.75;;;2.30;;
44428;SDS011;30134;47.866;-4.222;2023-06-22T03:51:30;2.80;;;2.00;;
44428;SDS011;30134;47.866;-4.222;2023-06-22T03:53:58;3.13;;;2.13;;
44428;SDS011;30134;47.866;-4.222;2023-06-22T03:56:24;2.63;;;2.20;;
44428;SDS011;30134;47.866;-4.222;2023-06-22T03:58:50;2.92;;;1.90;;
44428;SDS011;30134;47.866;-4.222;2023-06-22T04:01:16;2.90;;;2.10;;
44428;SDS011;30134;47.866;-4.222;2023-06-22T04:03:42;4.15;;;2.28;;
44428;SDS011;30134;47.866;-4.222;2023-06-22T04:06:08;2.75;;;2.00;;
44428;SDS011;30134;47.866;-4.222;2023-06-22T04:08:34;2.20;;;2.00;;
44428;SDS011;30134;47.866;-4.222;2023-06-22T04:11:00;2.30;;;1.80;;
44428;SDS011;30134;47.866;-4.222;2023-06-22T04:13:30;2.42;;;2.22;;
44428;SDS011;30134;47.866;-4.222;2023-06-22T04:15:56;2.92;;;2.30;;
44428;SDS011;30134;47.866;-4.222;2023-06-22T04:18:22;2.45;;;1.95;;
44428;SDS011;30134;47.866;-4.222;2023-06-22T04:20:48;2.58;;;1.85;;
44428;SDS011;30134;47.866;-4.222;2023-06-22T04:23:14;3.88;;;2.10;;
44428;SDS011;30134;47.866;-4.222;2023-06-22T04:25:40;2.60;;;1.98;;
44428;SDS011;30134;47.866;-4.222;2023-06-22T04:28:06;2.83;;;2.00;;
44428;SDS011;30134;47.866;-4.222;2023-06-22T04:30:37;2.40;;;1.98;;
44428;SDS011;30134;47.866;-4.222;2023-06-22T04:33:12;3.53;;;2.20;;
44428;SDS011;30134;47.866;-4.222;2023-06-22T04:35:42;3.28;;;2.25;;
44428;SDS011;30134;47.866;-4.222;2023-06-22T04:38:12;3.70;;;2.03;;
44428;SDS011;30134;47.866;-4.222;2023-06-22T04:40:41;2.70;;;2.05;;
44428;SDS011;30134;47.866;-4.222;2023-06-22T04:43:07;2.97;;;2.00;;
44428;SDS011;30134;47.866;-4.222;2023-06-22T04:45:35;2.83;;;2.10;;
44428;SDS011;30134;47.866;-4.222;2023-06-22T04:48:03;3.10;;;2.20;;
44428;SDS011;30134;47.866;-4.222;2023-06-22T04:50:30;3.00;;;2.10;;
44428;SDS011;30134;47.866;-4.222;2023-06-22T04:52:56;3.45;;;2.05;;
44428;SDS011;30134;47.866;-4.222;2023-06-22T04:55:23;2.47;;;2.08;;
44428;SDS011;30134;47.866;-4.222;2023-06-22T04:57:50;2.70;;;1.90;;
44428;SDS011;30134;47.866;-4.222;2023-06-22T05:00:20;2.92;;;2.15;;
44428;SDS011;30134;47.866;-4.222;2023-06-22T05:02:48;2.60;;;1.87;;
44428;SDS011;30134;47.866;-4.222;2023-06-22T05:05:14;2.38;;;2.08;;
44428;SDS011;30134;47.866;-4.222;2023-06-22T05:07:44;3.63;;;2.08;;
44428;SDS011;30134;47.866;-4.222;2023-06-22T05:10:13;2.15;;;1.75;;
44428;SDS011;30134;47.866;-4.222;2023-06-22T05:12:40;3.10;;;2.10;;
44428;SDS011;30134;47.866;-4.222;2023-06-22T05:15:07;2.83;;;2.05;;
44428;SDS011;30134;47.866;-4.222;2023-06-22T05:17:35;4.07;;;1.90;;
44428;SDS011;30134;47.866;-4.222;2023-06-22T05:20:06;3.05;;;2.20;;
44428;SDS011;30134;47.866;-4.222;2023-06-22T05:22:33;4.15;;;1.75;;
44428;SDS011;30134;47.866;-4.222;2023-06-22T05:24:59;1.70;;;1.50;;
44428;SDS011;30134;47.866;-4.222;2023-06-22T05:27:25;2.38;;;2.05;;
44428;SDS011;30134;47.866;-4.222;2023-06-22T05:29:51;3.28;;;1.98;;
44428;SDS011;30134;47.866;-4.222;2023-06-22T05:32:17;2.75;;;2.05;;
44428;SDS011;30134;47.866;-4.222;2023-06-22T05:34:44;2.65;;;2.00;;
44428;SDS011;30134;47.866;-4.222;2023-06-22T05:37:10;3.03;;;1.88;;
44428;SDS011;30134;47.866;-4.222;2023-06-22T05:39:38;2.55;;;1.98;;
44428;SDS011;30134;47.866;-4.222;2023-06-22T05:42:07;2.17;;;1.70;;
44428;SDS011;30134;47.866;-4.222;2023-06-22T05:44:33;2.92;;;2.20;;
44428;SDS011;30134;47.866;-4.222;2023-06-22T05:46:59;3.08;;;1.70;;
44428;SDS011;30134;47.866;-4.222;2023-06-22T05:49:25;2.15;;;1.67;;
44428;SDS011;30134;47.866;-4.222;2023-06-22T05:51:57;2.97;;;2.20;;
44428;SDS011;30134;47.866;-4.222;2023-06-22T05:54:25;2.15;;;1.75;;
44428;SDS011;30134;47.866;-4.222;2023-06-22T05:56:52;2.38;;;1.88;;
44428;SDS011;30134;47.866;-4.222;2023-06-22T05:59:19;3.78;;;2.10;;
44428;SDS011;30134;47.866;-4.222;2023-06-22T06:01:45;3.13;;;2.00;;
44428;SDS011;30134;47.866;-4.222;2023-06-22T06:04:15;4.20;;;1.80;;
44428;SDS011;30134;47.866;-4.222;2023-06-22T06:06:44;2.35;;;1.90;;
44428;SDS011;30134;47.866;-4.222;2023-06-22T06:09:12;2.00;;;1.80;;
44428;SDS011;30134;47.866;-4.222;2023-06-22T06:11:39;2.40;;;1.83;;
44428;SDS011;30134;47.866;-4.222;2023-06-22T06:14:05;3.08;;;1.83;;
44428;SDS011;30134;47.866;-4.222;2023-06-22T06:16:31;3.03;;;1.92;;
44428;SDS011;30134;47.866;-4.222;2023-06-22T06:18:57;4.20;;;2.13;;
44428;SDS011;30134;47.866;-4.222;2023-06-22T06:21:23;3.13;;;1.90;;
44428;SDS011;30134;47.866;-4.222;2023-06-22T06:23:49;3.08;;;2.22;;
44428;SDS011;30134;47.866;-4.222;2023-06-22T06:26:15;3.78;;;2.08;;
44428;SDS011;30134;47.866;-4.222;2023-06-22T06:28:44;2.35;;;1.80;;
44428;SDS011;30134;47.866;-4.222;2023-06-22T06:31:11;3.22;;;2.10;;
44428;SDS011;30134;47.866;-4.222;2023-06-22T06:33:42;2.50;;;1.92;;
44428;SDS011;30134;47.866;-4.222;2023-06-22T06:36:10;2.78;;;2.00;;
44428;SDS011;30134;47.866;-4.222;2023-06-22T06:38:36;3.08;;;2.20;;
44428;SDS011;30134;47.866;-4.222;2023-06-22T06:41:02;114.78;;;73.85;;
44428;SDS011;30134;47.866;-4.222;2023-06-22T06:43:28;92.43;;;62.33;;
44428;SDS011;30134;47.866;-4.222;2023-06-22T06:45:54;26.77;;;19.52;;
44428;SDS011;30134;47.866;-4.222;2023-06-22T06:48:20;12.25;;;8.25;;
44428;SDS011;30134;47.866;-4.222;2023-06-22T06:50:46;27.80;;;18.55;;
44428;SDS011;30134;47.866;-4.222;2023-06-22T06:53:12;28.52;;;19.60;;
44428;SDS011;30134;47.866;-4.222;2023-06-22T06:55:38;20.52;;;14.23;;
44428;SDS011;30134;47.866;-4.222;2023-06-22T06:58:04;22.90;;;14.20;;
44428;SDS011;30134;47.866;-4.222;2023-06-22T07:00:32;18.90;;;12.30;;
44428;SDS011;30134;47.866;-4.222;2023-06-22T07:02:58;15.13;;;9.60;;
44428;SDS011;30134;47.866;-4.222;2023-06-22T07:05:24;13.25;;;8.00;;
44428;SDS011;30134;47.866;-4.222;2023-06-22T07:07:50;9.75;;;6.75;;
44428;SDS011;30134;47.866;-4.222;2023-06-22T07:10:16;8.52;;;5.43;;
44428;SDS011;30134;47.866;-4.222;2023-06-22T07:12:42;9.02;;;5.38;;
44428;SDS011;30134;47.866;-4.222;2023-06-22T07:15:09;7.28;;;4.60;;
44428;SDS011;30134;47.866;-4.222;2023-06-22T07:17:38;8.52;;;5.10;;
44428;SDS011;30134;47.866;-4.222;2023-06-22T07:20:08;5.60;;;4.10;;
44428;SDS011;30134;47.866;-4.222;2023-06-22T07:22:37;4.68;;;3.75;;
44428;SDS011;30134;47.866;-4.222;2023-06-22T07:25:04;6.18;;;3.75;;
44428;SDS011;30134;47.866;-4.222;2023-06-22T07:28:16;6.43;;;3.90;;
44428;SDS011;30134;47.866;-4.222;2023-06-22T07:30:23;4.82;;;3.80;;
44428;SDS011;30134;47.866;-4.222;2023-06-22T07:32:53;4.25;;;3.38;;
44428;SDS011;30134;47.866;-4.222;2023-06-22T07:35:19;3.47;;;3.10;;
44428;SDS011;30134;47.866;-4.222;2023-06-22T07:37:45;5.03;;;3.13;;
44428;SDS011;30134;47.866;-4.222;2023-06-22T07:40:11;4.68;;;2.95;;
44428;SDS011;30134;47.866;-4.222;2023-06-22T07:42:37;5.03;;;2.85;;
44428;SDS011;30134;47.866;-4.222;2023-06-22T07:45:03;4.40;;;2.63;;
44428;SDS011;30134;47.866;-4.222;2023-06-22T07:47:33;3.67;;;2.63;;
44428;SDS011;30134;47.866;-4.222;2023-06-22T07:50:00;3.67;;;2.85;;
44428;SDS011;30134;47.866;-4.222;2023-06-22T07:52:28;4.65;;;2.78;;
44428;SDS011;30134;47.866;-4.222;2023-06-22T07:54:54;5.70;;;2.92;;
44428;SDS011;30134;47.866;-4.222;2023-06-22T07:57:20;4.10;;;2.80;;
44428;SDS011;30134;47.866;-4.222;2023-06-22T07:59:46;4.47;;;2.75;;
44428;SDS011;30134;47.866;-4.222;2023-06-22T08:02:12;6.32;;;3.00;;
44428;SDS011;30134;47.866;-4.222;2023-06-22T08:04:39;4.45;;;3.10;;
44428;SDS011;30134;47.866;-4.222;2023-06-22T08:07:06;5.65;;;2.90;;
44428;SDS011;30134;47.866;-4.222;2023-06-22T08:09:32;7.50;;;2.95;;
44428;SDS011;30134;47.866;-4.222;2023-06-22T08:11:59;6.75;;;2.80;;
44428;SDS011;30134;47.866;-4.222;2023-06-22T08:14:26;108.30;;;68.10;;
44428;SDS011;30134;47.866;-4.222;2023-06-22T08:16:52;50.13;;;31.80;;
44428;SDS011;30134;47.866;-4.222;2023-06-22T08:19:18;13.98;;;8.40;;
44428;SDS011;30134;47.866;-4.222;2023-06-22T08:21:44;9.02;;;6.05;;
44428;SDS011;30134;47.866;-4.222;2023-06-22T08:24:10;11.77;;;5.45;;
44428;SDS011;30134;47.866;-4.222;2023-06-22T08:26:36;8.45;;;5.30;;
44428;SDS011;30134;47.866;-4.222;2023-06-22T08:29:03;10.13;;;4.80;;
44428;SDS011;30134;47.866;-4.222;2023-06-22T08:31:29;13.23;;;4.25;;
44428;SDS011;30134;47.866;-4.222;2023-06-22T08:33:58;6.20;;;4.03;;
44428;SDS011;30134;47.866;-4.222;2023-06-22T08:36:24;11.52;;;4.07;;
44428;SDS011;30134;47.866;-4.222;2023-06-22T08:38:57;5.93;;;3.25;;
44428;SDS011;30134;47.866;-4.222;2023-06-22T08:41:27;6.55;;;3.67;;
44428;SDS011;30134;47.866;-4.222;2023-06-22T08:43:54;8.25;;;3.53;;
44428;SDS011;30134;47.866;-4.222;2023-06-22T08:46:20;4.60;;;3.15;;
44428;SDS011;30134;47.866;-4.222;2023-06-22T08:48:49;6.28;;;3.35;;
44428;SDS011;30134;47.866;-4.222;2023-06-22T08:51:15;5.03;;;3.30;;
44428;SDS011;30134;47.866;-4.222;2023-06-22T08:53:42;4.97;;;2.90;;
44428;SDS011;30134;47.866;-4.222;2023-06-22T08:56:10;5.57;;;3.28;;
44428;SDS011;30134;47.866;-4.222;2023-06-22T08:58:36;7.60;;;3.70;;
44428;SDS011;30134;47.866;-4.222;2023-06-22T09:01:02;4.50;;;3.15;;
44428;SDS011;30134;47.866;-4.222;2023-06-22T09:03:29;4.15;;;2.90;;
44428;SDS011;30134;47.866;-4.222;2023-06-22T09:05:57;5.65;;;3.33;;
44428;SDS011;30134;47.866;-4.222;2023-06-22T09:08:24;4.78;;;2.88;;
44428;SDS011;30134;47.866;-4.222;2023-06-22T09:10:50;3.92;;;3.20;;
44428;SDS011;30134;47.866;-4.222;2023-06-22T09:13:16;4.93;;;2.97;;
44428;SDS011;30134;47.866;-4.222;2023-06-22T09:15:42;6.38;;;3.15;;
44428;SDS011;30134;47.866;-4.222;2023-06-22T09:18:10;7.68;;;3.40;;
44428;SDS011;30134;47.866;-4.222;2023-06-22T09:20:36;3.95;;;2.90;;
44428;SDS011;30134;47.866;-4.222;2023-06-22T09:23:02;6.15;;;2.88;;
44428;SDS011;30134;47.866;-4.222;2023-06-22T09:25:28;6.95;;;2.75;;
44428;SDS011;30134;47.866;-4.222;2023-06-22T09:27:55;5.95;;;2.80;;
44428;SDS011;30134;47.866;-4.222;2023-06-22T09:30:21;4.82;;;2.97;;
44428;SDS011;30134;47.866;-4.222;2023-06-22T09:32:48;5.97;;;2.70;;
44428;SDS011;30134;47.866;-4.222;2023-06-22T09:35:13;4.85;;;2.60;;
44428;SDS011;30134;47.866;-4.222;2023-06-22T09:37:40;7.20;;;2.60;;
44428;SDS011;30134;47.866;-4.222;2023-06-22T09:40:06;3.40;;;2.50;;
44428;SDS011;30134;47.866;-4.222;2023-06-22T09:42:35;5.57;;;2.92;;
44428;SDS011;30134;47.866;-4.222;2023-06-22T09:45:02;3.50;;;2.38;;
44428;SDS011;30134;47.866;-4.222;2023-06-22T09:47:28;3.80;;;2.40;;
44428;SDS011;30134;47.866;-4.222;2023-06-22T09:49:55;3.65;;;2.38;;
44428;SDS011;30134;47.866;-4.222;2023-06-22T09:52:21;38.80;;;26.90;;
44428;SDS011;30134;47.866;-4.222;2023-06-22T09:54:48;15.85;;;11.68;;
44428;SDS011;30134;47.866;-4.222;2023-06-22T09:57:14;35.13;;;24.88;;
44428;SDS011;30134;47.866;-4.222;2023-06-22T09:59:40;23.38;;;17.70;;
44428;SDS011;30134;47.866;-4.222;2023-06-22T10:02:06;9.85;;;7.65;;
44428;SDS011;30134;47.866;-4.222;2023-06-22T10:04:34;7.07;;;4.40;;
44428;SDS011;30134;47.866;-4.222;2023-06-22T10:07:00;3.95;;;3.03;;
44428;SDS011;30134;47.866;-4.222;2023-06-22T10:09:27;6.47;;;3.30;;
44428;SDS011;30134;47.866;-4.222;2023-06-22T10:11:54;4.50;;;3.22;;
44428;SDS011;30134;47.866;-4.222;2023-06-22T10:14:20;5.32;;;2.80;;
44428;SDS011;30134;47.866;-4.222;2023-06-22T10:16:45;3.83;;;2.50;;
44428;SDS011;30134;47.866;-4.222;2023-06-22T10:19:13;5.13;;;2.60;;
44428;SDS011;30134;47.866;-4.222;2023-06-22T10:21:39;4.63;;;2.30;;
44428;SDS011;30134;47.866;-4.222;2023-06-22T10:24:05;4.43;;;2.80;;
44428;SDS011;30134;47.866;-4.222;2023-06-22T10:26:32;5.90;;;2.72;;
44428;SDS011;30134;47.866;-4.222;2023-06-22T10:28:59;3.70;;;2.63;;
44428;SDS011;30134;47.866;-4.222;2023-06-22T10:31:28;4.45;;;2.95;;
44428;SDS011;30134;47.866;-4.222;2023-06-22T10:33:54;3.38;;;2.30;;
44428;SDS011;30134;47.866;-4.222;2023-06-22T10:36:21;4.45;;;2.85;;
44428;SDS011;30134;47.866;-4.222;2023-06-22T10:38:48;3.13;;;2.60;;
44428;SDS011;30134;47.866;-4.222;2023-06-22T10:41:14;4.22;;;2.50;;
44428;SDS011;30134;47.866;-4.222;2023-06-22T10:43:41;3.75;;;2.72;;
44428;SDS011;30134;47.866;-4.222;2023-06-22T10:46:07;3.72;;;2.85;;
44428;SDS011;30134;47.866;-4.222;2023-06-22T10:48:34;3.15;;;2.70;;
44428;SDS011;30134;47.866;-4.222;2023-06-22T10:51:08;3.60;;;2.45;;
44428;SDS011;30134;47.866;-4.222;2023-06-22T10:53:34;2.85;;;2.55;;
44428;SDS011;30134;47.866;-4.222;2023-06-22T10:56:00;3.10;;;2.40;;
44428;SDS011;30134;47.866;-4.222;2023-06-22T10:58:26;6.95;;;3.05;;
44428;SDS011;30134;47.866;-4.222;2023-06-22T11:00:52;4.85;;;2.50;;
44428;SDS011;30134;47.866;-4.222;2023-06-22T11:03:18;4.47;;;2.78;;
44428;SDS011;30134;47.866;-4.222;2023-06-22T11:05:44;3.92;;;2.58;;
44428;SDS011;30134;47.866;-4.222;2023-06-22T11:08:12;3.55;;;2.78;;
44428;SDS011;30134;47.866;-4.222;2023-06-22T11:10:38;6.43;;;2.55;;
44428;SDS011;30134;47.866;-4.222;2023-06-22T11:13:05;3.58;;;2.30;;
44428;SDS011;30134;47.866;-4.222;2023-06-22T11:15:34;3.88;;;2.47;;
44428;SDS011;30134;47.866;-4.222;2023-06-22T11:18:01;6.78;;;2.90;;
44428;SDS011;30134;47.866;-4.222;2023-06-22T11:20:27;4.35;;;2.60;;
44428;SDS011;30134;47.866;-4.222;2023-06-22T11:22:53;3.75;;;2.70;;
44428;SDS011;30134;47.866;-4.222;2023-06-22T11:25:20;6.18;;;3.08;;
44428;SDS011;30134;47.866;-4.222;2023-06-22T11:27:46;3.42;;;2.33;;
44428;SDS011;30134;47.866;-4.222;2023-06-22T11:30:12;4.47;;;2.58;;
44428;SDS011;30134;47.866;-4.222;2023-06-22T11:32:38;4.50;;;2.83;;
44428;SDS011;30134;47.866;-4.222;2023-06-22T11:35:05;3.70;;;2.20;;
44428;SDS011;30134;47.866;-4.222;2023-06-22T11:37:31;3.53;;;2.33;;
44428;SDS011;30134;47.866;-4.222;2023-06-22T11:39:57;4.85;;;2.17;;
44428;SDS011;30134;47.866;-4.222;2023-06-22T11:42:23;3.50;;;2.42;;
44428;SDS011;30134;47.866;-4.222;2023-06-22T11:44:50;5.15;;;2.65;;
44428;SDS011;30134;47.866;-4.222;2023-06-22T11:47:16;3.80;;;2.40;;
44428;SDS011;30134;47.866;-4.222;2023-06-22T11:49:42;5.18;;;2.15;;
44428;SDS011;30134;47.866;-4.222;2023-06-22T11:52:10;7.10;;;2.70;;
44428;SDS011;30134;47.866;-4.222;2023-06-22T11:54:35;3.70;;;2.58;;
44428;SDS011;30134;47.866;-4.222;2023-06-22T11:57:02;11.52;;;7.32;;
44428;SDS011;30134;47.866;-4.222;2023-06-22T11:59:29;10.48;;;6.70;;
44428;SDS011;30134;47.866;-4.222;2023-06-22T12:01:55;36.65;;;23.38;;
44428;SDS011;30134;47.866;-4.222;2023-06-22T12:04:23;61.65;;;38.40;;
44428;SDS011;30134;47.866;-4.222;2023-06-22T12:06:49;64.93;;;41.72;;
44428;SDS011;30134;47.866;-4.222;2023-06-22T12:09:15;65.85;;;41.25;;
44428;SDS011;30134;47.866;-4.222;2023-06-22T12:11:41;64.03;;;39.05;;
44428;SDS011;30134;47.866;-4.222;2023-06-22T12:14:07;58.78;;;37.50;;
44428;SDS011;30134;47.866;-4.222;2023-06-22T12:16:33;59.33;;;37.80;;
44428;SDS011;30134;47.866;-4.222;2023-06-22T12:18:59;54.15;;;35.05;;
44428;SDS011;30134;47.866;-4.222;2023-06-22T12:21:25;55.72;;;35.40;;
44428;SDS011;30134;47.866;-4.222;2023-06-22T12:23:52;50.72;;;33.42;;
44428;SDS011;30134;47.866;-4.222;2023-06-22T12:26:18;51.42;;;32.75;;
44428;SDS011;30134;47.866;-4.222;2023-06-22T12:28:44;48.80;;;30.02;;
44428;SDS011;30134;47.866;-4.222;2023-06-22T12:31:10;41.30;;;27.10;;
44428;SDS011;30134;47.866;-4.222;2023-06-22T12:33:36;43.22;;;27.23;;
44428;SDS011;30134;47.866;-4.222;2023-06-22T12:36:02;39.88;;;25.88;;
44428;SDS011;30134;47.866;-4.222;2023-06-22T12:38:30;41.28;;;25.02;;
44428;SDS011;30134;47.866;-4.222;2023-06-22T12:40:56;41.20;;;26.10;;
44428;SDS011;30134;47.866;-4.222;2023-06-22T12:43:22;35.40;;;22.90;;
44428;SDS011;30134;47.866;-4.222;2023-06-22T12:45:48;34.42;;;22.08;;
44428;SDS011;30134;47.866;-4.222;2023-06-22T12:48:14;35.53;;;22.83;;
44428;SDS011;30134;47.866;-4.222;2023-06-22T12:50:41;36.33;;;22.17;;
44428;SDS011;30134;47.866;-4.222;2023-06-22T12:53:06;31.23;;;20.75;;
44428;SDS011;30134;47.866;-4.222;2023-06-22T12:55:33;30.20;;;20.08;;
44428;SDS011;30134;47.866;-4.222;2023-06-22T12:57:59;30.55;;;20.52;;
44428;SDS011;30134;47.866;-4.222;2023-06-22T13:00:25;27.77;;;18.38;;
44428;SDS011;30134;47.866;-4.222;2023-06-22T13:02:51;26.80;;;18.38;;
44428;SDS011;30134;47.866;-4.222;2023-06-22T13:05:18;25.95;;;16.20;;
44428;SDS011;30134;47.866;-4.222;2023-06-22T13:07:44;25.70;;;17.42;;
44428;SDS011;30134;47.866;-4.222;2023-06-22T13:10:10;23.70;;;15.82;;
44428;SDS011;30134;47.866;-4.222;2023-06-22T13:12:36;22.08;;;14.70;;
44428;SDS011;30134;47.866;-4.222;2023-06-22T13:15:02;20.02;;;14.43;;
44428;SDS011;30134;47.866;-4.222;2023-06-22T13:17:29;23.88;;;15.32;;
44428;SDS011;30134;47.866;-4.222;2023-06-22T13:19:55;21.75;;;14.52;;
44428;SDS011;30134;47.866;-4.222;2023-06-22T13:22:31;20.65;;;13.88;;
44428;SDS011;30134;47.866;-4.222;2023-06-22T13:25:08;19.10;;;12.63;;
44428;SDS011;30134;47.866;-4.222;2023-06-22T13:27:41;16.77;;;12.32;;
44428;SDS011;30134;47.866;-4.222;2023-06-22T13:30:08;17.77;;;11.70;;
44428;SDS011;30134;47.866;-4.222;2023-06-22T13:32:34;16.33;;;10.45;;
44428;SDS011;30134;47.866;-4.222;2023-06-22T13:35:01;15.20;;;9.95;;
44428;SDS011;30134;47.866;-4.222;2023-06-22T13:37:27;11.20;;;6.68;;
44428;SDS011;30134;47.866;-4.222;2023-06-22T13:39:53;9.30;;;5.38;;
44428;SDS011;30134;47.866;-4.222;2023-06-22T13:42:21;8.25;;;4.22;;
44428;SDS011;30134;47.866;-4.222;2023-06-22T13:44:47;5.68;;;3.33;;
44428;SDS011;30134;47.866;-4.222;2023-06-22T13:47:13;5.45;;;2.70;;
44428;SDS011;30134;47.866;-4.222;2023-06-22T13:49:39;5.82;;;2.85;;
44428;SDS011;30134;47.866;-4.222;2023-06-22T13:52:05;6.82;;;2.67;;
44428;SDS011;30134;47.866;-4.222;2023-06-22T13:54:35;6.45;;;2.53;;
44428;SDS011;30134;47.866;-4.222;2023-06-22T13:57:02;6.43;;;3.05;;
44428;SDS011;30134;47.866;-4.222;2023-06-22T13:59:29;3.60;;;2.58;;
44428;SDS011;30134;47.866;-4.222;2023-06-22T14:01:55;4.10;;;2.60;;
44428;SDS011;30134;47.866;-4.222;2023-06-22T14:04:24;4.45;;;2.33;;
44428;SDS011;30134;47.866;-4.222;2023-06-22T14:06:51;6.75;;;2.15;;
44428;SDS011;30134;47.866;-4.222;2023-06-22T14:09:17;5.72;;;2.40;;
44428;SDS011;30134;47.866;-4.222;2023-06-22T14:11:43;4.95;;;2.20;;
44428;SDS011;30134;47.866;-4.222;2023-06-22T14:14:09;8.77;;;2.55;;
44428;SDS011;30134;47.866;-4.222;2023-06-22T14:16:35;5.57;;;2.70;;
44428;SDS011;30134;47.866;-4.222;2023-06-22T14:19:01;4.25;;;2.28;;
44428;SDS011;30134;47.866;-4.222;2023-06-22T14:21:27;7.82;;;2.75;;
44428;SDS011;30134;47.866;-4.222;2023-06-22T14:23:54;4.70;;;2.45;;
44428;SDS011;30134;47.866;-4.222;2023-06-22T14:26:20;4.70;;;2.40;;
44428;SDS011;30134;47.866;-4.222;2023-06-22T14:28:47;4.95;;;2.30;;
44428;SDS011;30134;47.866;-4.222;2023-06-22T14:31:18;10.55;;;2.67;;
44428;SDS011;30134;47.866;-4.222;2023-06-22T14:33:48;10.75;;;3.10;;
44428;SDS011;30134;47.866;-4.222;2023-06-22T14:36:15;5.78;;;2.38;;
44428;SDS011;30134;47.866;-4.222;2023-06-22T14:38:42;7.00;;;2.45;;
44428;SDS011;30134;47.866;-4.222;2023-06-22T14:41:09;8.13;;;2.40;;